Time;durP1;ratioP1;P1;durP2;ratioP2;P2;SDS_P1;SDS_P2;PMS_P1;PMS_P2;Temp;Humidity;BMP_temperature;BMP_pressure;BME280_temperature;BME280_humidity;BME280_pressure;Samples;Min_cycle;Max_cycle;Signal;HPM_P1;HPM_P2
2021/09/30 00:02:01;;;;;;;11.75;7.13;;;;;;;19.00;59.13;100542.53;5051558;28;20087;-37
2021/09/30 00:04:26;;;;;;;11.40;6.95;;;;;;;18.62;60.63;100538.50;5050715;28;20033;-37
2021/09/30 00:06:51;;;;;;;10.93;7.22;;;;;;;18.58;60.79;100540.00;5053953;28;20054;-37
2021/09/30 00:09:17;;;;;;;11.25;7.28;;;;;;;18.75;60.24;100540.94;5069318;28;20126;-38
2021/09/30 00:11:46;;;;;;;8.90;6.80;;;;;;;18.68;60.47;100540.22;5060531;28;20078;-37
2021/09/30 00:17:48;;;;;;;8.55;6.97;;;;;;;19.00;59.79;100539.84;5066673;28;20029;-37
2021/09/30 00:49:11;;;;;;;9.77;7.30;;;;;;;18.64;60.80;100536.38;5040376;28;20043;-37
2021/09/30 00:54:28;;;;;;;12.75;7.82;;;;;;;18.50;60.90;100537.69;5064142;28;20473;-37
2021/09/30 02:21:04;;;;;;;23.77;16.20;;;;;;;18.41;62.61;100525.63;5040741;28;20032;-37
2021/09/30 02:58:45;;;;;;;13.52;9.90;;;;;;;18.14;60.76;100528.78;5068856;28;20341;-37
2021/09/30 03:01:19;;;;;;;16.73;9.43;;;;;;;17.70;61.95;100533.66;5055991;28;20103;-37
2021/09/30 03:03:45;;;;;;;13.20;10.25;;;;;;;17.92;61.78;100532.06;5027115;28;20461;-37
2021/09/30 03:06:11;;;;;;;12.73;9.65;;;;;;;17.64;62.19;100523.81;5053242;28;20078;-39
2021/09/30 03:08:46;;;;;;;14.20;10.48;;;;;;;17.88;61.45;100538.97;5035432;28;20017;-39
2021/09/30 03:11:12;;;;;;;14.10;9.20;;;;;;;17.62;61.50;100542.06;5065624;28;20104;-37
2021/09/30 03:13:38;;;;;;;12.23;9.27;;;;;;;17.30;62.09;100524.28;5061667;28;20468;-38
2021/09/30 03:16:49;;;;;;;13.45;9.23;;;;;;;17.22;62.32;100531.88;5056540;28;20445;-38
2021/09/30 03:19:02;;;;;;;14.80;9.60;;;;;;;17.42;62.03;100534.28;5035239;28;20822;-38
2021/09/30 03:24:13;;;;;;;12.13;9.55;;;;;;;17.40;61.09;100537.19;5036311;28;20486;-38
2021/09/30 03:26:38;;;;;;;18.58;9.43;;;;;;;17.35;61.62;100535.19;5052960;28;20484;-36
2021/09/30 03:29:04;;;;;;;12.10;9.35;;;;;;;17.54;60.50;100538.63;5063933;28;20493;-38
2021/09/30 03:31:31;;;;;;;12.52;9.35;;;;;;;17.45;60.61;100531.13;5049954;28;20503;-37
2021/09/30 03:33:56;;;;;;;14.32;9.88;;;;;;;17.43;60.90;100536.75;5062253;28;20078;-37
2021/09/30 03:36:22;;;;;;;14.27;9.63;;;;;;;17.27;61.20;100542.75;5053385;28;20092;-37
2021/09/30 03:38:47;;;;;;;14.77;9.70;;;;;;;17.21;61.22;100539.13;5048654;28;20028;-37
2021/09/30 03:41:13;;;;;;;12.95;9.98;;;;;;;17.05;61.04;100548.63;5056470;28;20488;-38
2021/09/30 03:43:38;;;;;;;12.30;9.88;;;;;;;16.95;60.70;100545.66;5060228;28;20032;-37
2021/09/30 03:46:04;;;;;;;12.40;9.38;;;;;;;16.94;60.90;100552.91;5063568;28;20032;-38
2021/09/30 03:48:29;;;;;;;14.95;10.48;;;;;;;16.90;60.19;100559.78;5053644;28;20024;-39
2021/09/30 04:01:04;;;;;;;14.27;10.30;;;;;;;17.18;59.42;100555.72;5041268;28;20047;-38
2021/09/30 04:03:29;;;;;;;13.52;10.10;;;;;;;17.30;58.43;100550.38;5070941;28;20413;-38
2021/09/30 04:05:55;;;;;;;14.77;10.23;;;;;;;17.02;59.52;100553.63;5059562;28;20032;-38
2021/09/30 04:08:20;;;;;;;13.63;10.27;;;;;;;17.11;58.85;100553.09;5066637;28;20054;-37
2021/09/30 04:10:46;;;;;;;15.75;9.57;;;;;;;16.89;60.21;100554.66;5051052;28;20495;-38
2021/09/30 04:13:11;;;;;;;14.13;10.38;;;;;;;16.62;60.41;100549.53;5056521;28;20074;-37
2021/09/30 04:15:37;;;;;;;15.25;9.48;;;;;;;16.99;59.92;100552.25;5060063;28;20048;-38
2021/09/30 04:18:02;;;;;;;12.70;9.38;;;;;;;16.66;60.07;100552.59;5063463;28;20028;-37
2021/09/30 04:20:28;;;;;;;15.05;9.27;;;;;;;16.71;59.85;100558.94;5053692;28;20033;-36
2021/09/30 04:22:53;;;;;;;19.15;9.10;;;;;;;16.49;60.74;100555.88;5055784;28;20021;-36
2021/09/30 04:25:19;;;;;;;13.73;9.02;;;;;;;16.71;59.91;100561.63;5057322;28;20450;-36
2021/09/30 04:27:44;;;;;;;14.93;9.40;;;;;;;16.64;59.67;100562.72;5068665;28;20403;-36
2021/09/30 04:30:10;;;;;;;19.73;9.55;;;;;;;16.80;59.49;100557.59;5055406;28;20016;-36
2021/09/30 04:32:36;;;;;;;13.55;9.10;;;;;;;16.90;58.54;100557.09;5065942;28;20024;-37
2021/09/30 04:35:01;;;;;;;13.40;9.35;;;;;;;17.18;57.60;100558.41;5054658;28;20169;-38
2021/09/30 04:37:27;;;;;;;12.95;9.05;;;;;;;17.44;57.70;100567.16;5061563;28;20429;-38
2021/09/30 04:39:52;;;;;;;13.52;8.50;;;;;;;16.82;58.63;100568.16;5061998;28;20099;-37
2021/09/30 04:42:18;;;;;;;14.63;8.13;;;;;;;17.19;57.84;100579.69;5054932;28;20093;-38
2021/09/30 04:44:43;;;;;;;15.77;8.30;;;;;;;17.13;57.14;100571.69;5066585;28;20028;-38
2021/09/30 04:47:09;;;;;;;14.18;9.75;;;;;;;17.28;57.07;100572.13;5055637;28;20020;-38
2021/09/30 04:49:34;;;;;;;14.07;8.90;;;;;;;17.07;57.25;100583.38;5068947;28;20032;-37
2021/09/30 04:52:00;;;;;;;8.93;7.35;;;;;;;17.10;56.46;100580.25;5055522;28;20493;-38
2021/09/30 04:54:25;;;;;;;12.50;7.45;;;;;;;16.89;56.83;100576.97;5065006;28;20119;-37
2021/09/30 04:56:50;;;;;;;12.77;7.28;;;;;;;17.04;56.75;100579.28;5052229;28;20028;-37
2021/09/30 04:59:16;;;;;;;15.40;6.75;;;;;;;16.96;56.05;100560.75;5060259;28;20093;-36
2021/09/30 05:01:41;;;;;;;12.73;7.57;;;;;;;17.06;56.28;100577.19;5049306;28;20032;-37
2021/09/30 05:04:07;;;;;;;10.15;7.10;;;;;;;16.99;55.55;100579.13;5062926;28;20070;-37
2021/09/30 05:06:32;;;;;;;11.73;6.68;;;;;;;17.29;55.55;100579.16;5051529;28;20028;-37
2021/09/30 05:08:59;;;;;;;14.43;7.07;;;;;;;17.35;54.68;100572.84;5052085;28;20407;-37
2021/09/30 05:11:31;;;;;;;10.40;7.30;;;;;;;17.40;55.06;100580.22;5060120;28;20035;-38
2021/09/30 05:13:58;;;;;;;15.90;7.50;;;;;;;17.29;55.80;100586.41;5048506;28;20040;-37
2021/09/30 05:16:24;;;;;;;18.50;9.02;;;;;;;17.14;56.36;100582.25;5064585;28;20059;-38
2021/09/30 05:18:51;;;;;;;20.90;11.68;;;;;;;17.30;55.21;100598.78;5064720;28;20016;-37
2021/09/30 05:21:17;;;;;;;11.05;7.20;;;;;;;17.33;55.83;100599.16;5055121;28;20040;-37
2021/09/30 05:23:42;;;;;;;9.90;6.63;;;;;;;17.43;55.41;100592.44;5056587;28;20396;-38
2021/09/30 05:26:08;;;;;;;12.00;6.68;;;;;;;17.24;55.95;100599.72;5062241;28;20144;-37
2021/09/30 05:28:33;;;;;;;12.75;6.22;;;;;;;17.34;55.25;100600.81;5050329;28;20047;-52
2021/09/30 05:31:00;;;;;;;14.02;6.15;;;;;;;17.47;54.45;100607.06;5054456;28;20020;-50
2021/09/30 05:33:26;;;;;;;10.13;5.82;;;;;;;17.25;55.04;100602.19;5058954;28;20048;-50
2021/09/30 05:35:51;;;;;;;13.95;5.97;;;;;;;17.60;54.06;100598.81;5058876;28;20535;-46
2021/09/30 05:38:17;;;;;;;10.55;6.20;;;;;;;17.63;54.11;100595.66;5053197;28;20029;-49
2021/09/30 05:40:47;;;;;;;10.80;6.30;;;;;;;17.77;54.05;100601.66;5064875;28;20024;-47
2021/09/30 05:43:18;;;;;;;11.38;5.80;;;;;;;17.96;53.42;100605.13;5054876;28;20396;-48
2021/09/30 05:45:44;;;;;;;9.07;5.63;;;;;;;17.96;52.83;100605.13;5057413;28;20028;-52
2021/09/30 05:48:10;;;;;;;11.00;5.80;;;;;;;17.75;53.21;100603.75;5060817;28;20396;-50
2021/09/30 05:50:35;;;;;;;9.40;5.90;;;;;;;17.74;53.43;100600.25;5051226;28;20025;-49
2021/09/30 05:53:01;;;;;;;8.35;5.60;;;;;;;17.78;53.05;100620.28;5063045;28;20359;-48
2021/09/30 05:55:26;;;;;;;8.82;5.70;;;;;;;17.78;53.09;100614.06;5056093;28;20020;-50
2021/09/30 05:57:52;;;;;;;9.57;5.85;;;;;;;17.78;53.40;100611.38;5055480;28;20075;-48
2021/09/30 06:00:33;;;;;;;8.48;5.22;;;;;;;17.97;52.36;100615.69;5063559;28;20032;-48
2021/09/30 06:13:47;;;;;;;6.72;5.13;;;;;;;17.70;53.05;100617.09;5057334;28;20040;-49
2021/09/30 06:16:19;;;;;;;10.65;5.28;;;;;;;17.61;53.56;100615.75;5030854;28;20400;-48
2021/09/30 06:18:44;;;;;;;14.50;6.40;;;;;;;18.04;52.49;100620.13;5050960;28;20102;-47
2021/09/30 06:21:10;;;;;;;8.20;5.05;;;;;;;17.71;53.00;100616.03;5061541;28;20024;-47
2021/09/30 06:23:35;;;;;;;9.65;5.30;;;;;;;18.07;52.04;100622.38;5057342;28;20487;-48
2021/09/30 06:26:01;;;;;;;8.98;5.03;;;;;;;18.13;51.89;100624.13;5054648;28;20029;-48
2021/09/30 06:28:26;;;;;;;10.15;5.30;;;;;;;17.81;52.38;100619.00;5063578;28;20068;-49
2021/09/30 06:30:52;;;;;;;8.40;5.03;;;;;;;18.21;50.89;100622.97;5050837;28;20035;-49
2021/09/30 06:33:17;;;;;;;9.27;4.75;;;;;;;18.25;50.84;100621.44;5060649;28;20457;-49
2021/09/30 06:35:43;;;;;;;10.80;4.88;;;;;;;18.54;50.35;100619.69;5059396;28;20069;-51
2021/09/30 06:38:08;;;;;;;19.70;4.93;;;;;;;18.44;50.05;100617.59;5057614;28;20044;-50
2021/09/30 06:40:34;;;;;;;12.20;5.20;;;;;;;18.52;50.05;100619.94;5067552;28;20028;-48
2021/09/30 06:43:00;;;;;;;8.75;4.53;;;;;;;18.55;49.53;100624.84;5056175;28;20048;-49
2021/09/30 06:45:26;;;;;;;13.02;5.13;;;;;;;18.69;49.33;100620.03;5062952;28;20411;-50
2021/09/30 06:47:51;;;;;;;11.52;4.88;;;;;;;18.68;49.53;100629.19;5063196;28;20021;-48
2021/09/30 06:50:17;;;;;;;7.85;4.32;;;;;;;18.90;48.42;100621.31;5056152;28;20059;-49
2021/09/30 06:52:43;;;;;;;11.07;4.65;;;;;;;18.53;49.29;100626.97;5067857;28;20492;-51
2021/09/30 06:55:09;;;;;;;9.85;4.63;;;;;;;18.50;49.60;100635.50;5055114;28;20112;-48
2021/09/30 06:57:34;;;;;;;7.68;4.28;;;;;;;18.73;48.82;100632.00;5061805;28;20226;-50
2021/09/30 07:00:03;;;;;;;8.55;4.28;;;;;;;18.50;49.63;100637.38;5063630;28;20519;-49
2021/09/30 07:02:28;;;;;;;8.00;4.82;;;;;;;18.11;50.54;100637.00;5054221;28;20056;-47
2021/09/30 07:04:54;;;;;;;9.18;4.70;;;;;;;18.67;49.61;100634.81;5066988;28;20134;-48
2021/09/30 07:07:19;;;;;;;8.35;4.70;;;;;;;19.00;48.50;100634.22;5058592;28;20435;-49
2021/09/30 07:09:48;;;;;;;12.65;4.78;;;;;;;19.40;47.15;100632.56;5059460;28;20025;-49
2021/09/30 07:12:13;;;;;;;9.80;4.90;;;;;;;19.53;47.63;100627.72;5065517;28;20035;-50
2021/09/30 07:14:40;;;;;;;8.75;4.88;;;;;;;19.30;47.84;100628.59;5053719;28;20129;-46
2021/09/30 07:17:05;;;;;;;8.93;4.80;;;;;;;19.72;46.92;100632.94;5065119;28;20025;-49
2021/09/30 07:19:33;;;;;;;7.57;4.63;;;;;;;19.80;46.60;100632.56;5059757;28;20032;-49
2021/09/30 07:21:58;;;;;;;9.05;4.80;;;;;;;19.31;47.75;100635.66;5057634;28;20033;-49
2021/09/30 07:24:24;;;;;;;8.18;4.57;;;;;;;19.41;47.13;100635.03;5066968;28;20105;-48
2021/09/30 07:26:49;;;;;;;8.30;4.90;;;;;;;19.47;47.51;100625.97;5053659;28;20024;-49
2021/09/30 07:29:15;;;;;;;11.52;4.75;;;;;;;20.13;46.15;100627.44;5063264;28;20099;-48
2021/09/30 07:31:40;;;;;;;8.70;4.65;;;;;;;20.19;45.29;100626.44;5060670;28;20039;-51
2021/09/30 07:34:11;;;;;;;9.02;4.40;;;;;;;19.91;45.67;100637.09;5056429;28;20078;-48
2021/09/30 07:36:37;;;;;;;10.85;4.70;;;;;;;19.90;46.17;100627.31;5066605;28;20142;-50
2021/09/30 07:39:03;;;;;;;9.80;4.35;;;;;;;20.38;45.62;100627.81;5055272;28;20021;-48
2021/09/30 07:41:28;;;;;;;11.05;4.22;;;;;;;20.88;43.51;100624.22;5061616;28;20124;-47
2021/09/30 07:43:54;;;;;;;9.80;4.63;;;;;;;20.60;44.32;100635.19;5062219;28;20024;-48
2021/09/30 07:46:19;;;;;;;9.90;4.47;;;;;;;21.00;44.15;100631.41;5054218;28;20029;-48
2021/09/30 07:48:45;;;;;;;9.20;4.35;;;;;;;20.96;44.16;100627.56;5066843;28;20028;-55
2021/09/30 07:51:12;;;;;;;7.30;4.32;;;;;;;20.80;45.37;100623.84;5056948;28;20464;-51
2021/09/30 07:53:38;;;;;;;9.13;4.13;;;;;;;21.55;42.29;100625.06;5060261;28;20582;-48
2021/09/30 07:56:03;;;;;;;8.23;3.90;;;;;;;22.10;40.96;100628.53;5063277;28;20025;-49
2021/09/30 07:58:29;;;;;;;10.13;4.60;;;;;;;22.52;40.29;100629.66;5053104;28;20353;-49
2021/09/30 08:00:54;;;;;;;12.77;4.57;;;;;;;23.12;39.68;100619.44;5065811;28;20029;-48
2021/09/30 08:03:20;;;;;;;9.07;3.97;;;;;;;23.93;37.71;100613.38;5057434;28;20028;-49
2021/09/30 08:05:45;;;;;;;10.65;3.85;;;;;;;23.49;38.42;100630.13;5058618;28;20025;-48
2021/09/30 08:08:11;;;;;;;11.93;4.07;;;;;;;23.28;38.02;100618.38;5064117;28;20035;-48
2021/09/30 08:10:37;;;;;;;7.43;4.05;;;;;;;22.82;38.62;100619.00;5053146;28;20103;-49
2021/09/30 08:13:03;;;;;;;7.47;3.88;;;;;;;22.79;38.41;100615.97;5064558;28;20033;-47
2021/09/30 08:15:28;;;;;;;10.63;3.78;;;;;;;22.98;38.07;100613.63;5058007;28;20144;-49
2021/09/30 08:17:54;;;;;;;9.80;4.18;;;;;;;22.63;38.67;100604.25;5057244;28;20102;-46
2021/09/30 08:20:20;;;;;;;13.57;4.30;;;;;;;22.20;39.61;100612.34;5065044;28;20044;-48
2021/09/30 08:22:46;;;;;;;12.68;4.43;;;;;;;21.90;40.30;100615.63;5051200;28;20074;-48
2021/09/30 08:25:12;;;;;;;9.73;4.57;;;;;;;22.59;39.14;100622.94;5062909;28;20082;-47
2021/09/30 08:27:37;;;;;;;8.88;3.80;;;;;;;23.00;37.32;100609.59;5059360;28;20111;-48
2021/09/30 08:30:03;;;;;;;7.13;3.97;;;;;;;23.51;36.38;100616.28;5056312;28;20044;-47
2021/09/30 08:32:29;;;;;;;11.10;3.90;;;;;;;24.28;35.68;100605.47;5065714;28;20047;-50
2021/09/30 08:34:54;;;;;;;8.10;3.78;;;;;;;23.77;34.50;100607.06;5052832;28;20028;-50
2021/09/30 08:37:20;;;;;;;11.75;4.40;;;;;;;24.03;34.89;100600.84;5061313;28;20029;-48
2021/09/30 08:39:45;;;;;;;11.32;4.10;;;;;;;23.75;35.98;100606.53;5059887;28;20499;-48
2021/09/30 08:42:11;;;;;;;9.93;4.18;;;;;;;24.11;35.16;100603.84;5054357;28;20029;-47
2021/09/30 08:44:36;;;;;;;7.68;4.07;;;;;;;24.77;34.21;100605.66;5065155;28;20025;-50
2021/09/30 08:47:02;;;;;;;10.70;4.10;;;;;;;24.67;34.46;100599.44;5053889;28;20021;-51
2021/09/30 08:49:28;;;;;;;10.15;4.63;;;;;;;24.66;34.84;100603.25;5060414;28;20033;-52
2021/09/30 08:51:53;;;;;;;8.40;3.63;;;;;;;23.86;34.90;100606.59;5060971;28;20341;-48
2021/09/30 08:54:18;;;;;;;7.50;3.95;;;;;;;23.55;35.84;100603.78;5053601;28;20432;-49
2021/09/30 08:56:44;;;;;;;8.15;4.00;;;;;;;23.77;35.61;100604.34;5064970;28;20032;-50
2021/09/30 08:59:17;;;;;;;7.85;3.78;;;;;;;24.75;34.18;100593.41;5054426;28;20094;-49
2021/09/30 09:01:44;;;;;;;8.73;4.18;;;;;;;25.12;33.59;100598.44;5058608;28;20108;-47
2021/09/30 09:04:20;;;;;;;8.68;3.40;;;;;;;24.78;32.21;100592.88;5063162;28;20039;-48
2021/09/30 09:06:46;;;;;;;10.60;3.55;;;;;;;23.92;34.02;100600.88;5052522;28;20057;-50
2021/09/30 09:09:25;;;;;;;11.27;4.13;;;;;;;23.83;34.53;100591.63;5062323;28;20146;-49
2021/09/30 09:11:52;;;;;;;8.60;3.95;;;;;;;23.70;34.89;100587.50;5060510;28;20404;-48
2021/09/30 09:14:28;;;;;;;9.48;4.20;;;;;;;23.50;35.66;100596.47;5053505;28;20029;-48
2021/09/30 09:17:04;;;;;;;7.18;3.72;;;;;;;23.71;35.20;100593.78;5036880;28;20085;-48
2021/09/30 09:19:32;;;;;;;8.30;4.07;;;;;;;24.04;34.31;100586.19;5059798;28;20060;-47
2021/09/30 09:22:03;;;;;;;7.88;3.92;;;;;;;23.86;35.01;100591.09;5061995;28;20464;-47
2021/09/30 09:24:29;;;;;;;14.15;4.00;;;;;;;24.14;34.18;100589.72;5052080;28;20037;-48
2021/09/30 09:26:57;;;;;;;11.25;4.35;;;;;;;23.62;35.31;100594.28;5065011;28;20445;-49
2021/09/30 09:29:23;;;;;;;9.27;3.67;;;;;;;23.85;35.12;100594.06;5051293;28;20052;-48
2021/09/30 09:31:50;;;;;;;6.80;3.80;;;;;;;24.51;34.44;100585.88;5047302;28;20484;-48
2021/09/30 09:34:19;;;;;;;7.85;3.85;;;;;;;25.18;33.97;100583.69;5049265;28;20393;-50
2021/09/30 09:36:46;;;;;;;7.05;3.60;;;;;;;25.83;32.74;100584.66;5065465;28;20052;-47
2021/09/30 09:39:12;;;;;;;14.05;4.70;;;;;;;26.29;31.37;100579.66;5056047;28;20060;-50
2021/09/30 09:41:38;;;;;;;9.13;3.92;;;;;;;26.21;31.26;100579.44;5058601;28;20032;-48
2021/09/30 09:44:04;;;;;;;8.55;3.92;;;;;;;24.86;32.50;100575.16;5062187;28;20056;-48
2021/09/30 09:46:38;;;;;;;9.48;4.57;;;;;;;24.40;33.22;100576.88;5052261;28;20028;-51
2021/09/30 09:49:05;;;;;;;9.65;4.07;;;;;;;24.39;33.39;100578.00;5062277;28;20029;-48
2021/09/30 09:51:34;;;;;;;10.70;4.45;;;;;;;23.85;34.61;100585.94;5057913;28;20020;-50
2021/09/30 09:54:00;;;;;;;12.80;4.38;;;;;;;23.92;33.72;100581.84;5054367;28;20381;-50
2021/09/30 09:56:25;;;;;;;8.43;4.30;;;;;;;23.76;34.71;100578.28;5064995;28;20315;-49
2021/09/30 09:58:55;;;;;;;8.90;4.05;;;;;;;24.01;34.82;100568.53;5051994;28;20067;-53
2021/09/30 10:01:27;;;;;;;14.95;4.68;;;;;;;24.01;34.16;100573.97;5060736;28;20395;-47
2021/09/30 10:03:54;;;;;;;9.15;4.30;;;;;;;24.19;33.80;100567.94;5060691;28;20036;-50
2021/09/30 10:06:20;;;;;;;7.90;4.18;;;;;;;24.37;33.09;100571.19;5052448;28;20052;-48
2021/09/30 10:08:45;;;;;;;10.10;4.50;;;;;;;23.68;34.46;100573.38;5064992;28;20091;-47
2021/09/30 10:11:11;;;;;;;7.05;4.18;;;;;;;23.56;35.01;100570.13;5057051;28;20020;-50
2021/09/30 10:13:37;;;;;;;8.23;3.90;;;;;;;24.05;33.65;100561.47;5062866;28;20114;-48
2021/09/30 10:16:03;;;;;;;11.23;4.50;;;;;;;24.07;33.51;100563.91;5064344;28;20135;-48
2021/09/30 10:18:29;;;;;;;8.10;4.07;;;;;;;24.50;33.11;100557.03;5055427;28;20151;-48
2021/09/30 10:20:55;;;;;;;9.43;3.95;;;;;;;24.92;33.32;100553.06;5068208;28;20032;-48
2021/09/30 10:23:27;;;;;;;13.45;4.40;;;;;;;25.17;31.65;100559.47;5060049;28;20021;-49
2021/09/30 10:25:54;;;;;;;9.75;4.05;;;;;;;24.10;32.73;100558.72;5060074;28;20035;-49
2021/09/30 10:28:19;;;;;;;10.82;4.30;;;;;;;23.45;33.70;100563.03;5066752;28;20118;-48
2021/09/30 10:30:47;;;;;;;8.82;3.70;;;;;;;22.96;34.29;100559.63;5055320;28;20072;-48
2021/09/30 10:33:20;;;;;;;7.00;4.00;;;;;;;23.30;33.45;100567.34;5065317;28;20021;-47
2021/09/30 10:35:52;;;;;;;9.65;4.20;;;;;;;22.80;34.54;100558.75;5063192;28;20530;-52
2021/09/30 10:38:31;;;;;;;10.82;4.35;;;;;;;23.12;34.82;100555.09;5056179;28;20029;-48
2021/09/30 10:41:09;;;;;;;15.77;4.07;;;;;;;23.35;34.64;100555.69;5040504;28;20164;-49
2021/09/30 10:43:44;;;;;;;10.57;3.78;;;;;;;24.12;32.32;100553.00;5062034;28;20031;-49
2021/09/30 10:46:21;;;;;;;20.33;4.72;;;;;;;24.13;33.23;100554.66;5065881;28;20032;-48
2021/09/30 10:48:47;;;;;;;15.88;4.40;;;;;;;24.47;32.26;100548.59;5053705;28;20062;-48
2021/09/30 10:51:12;;;;;;;10.15;3.97;;;;;;;23.84;33.02;100552.50;5064967;28;20096;-47
2021/09/30 10:53:47;;;;;;;11.20;3.90;;;;;;;24.14;31.74;100526.34;5050356;28;20013;-48
2021/09/30 10:56:27;;;;;;;9.00;4.25;;;;;;;24.24;32.45;100548.09;5066859;28;20035;-51
2021/09/30 10:59:02;;;;;;;7.63;4.32;;;;;;;24.74;32.43;100548.25;5039422;28;20088;-47
2021/09/30 11:01:27;;;;;;;11.70;4.28;;;;;;;24.42;32.53;100537.72;5062787;28;20109;-47
2021/09/30 11:04:03;;;;;;;10.73;4.05;;;;;;;25.25;31.18;100539.03;5063446;28;20028;-49
2021/09/30 11:06:28;;;;;;;10.02;3.80;;;;;;;25.13;30.93;100542.06;5054445;28;20025;-50
2021/09/30 11:09:21;;;;;;;7.47;4.05;;;;;;;24.82;30.74;100542.22;5067245;28;20098;-49
2021/09/30 11:11:51;;;;;;;9.85;4.00;;;;;;;24.96;30.30;100545.16;5062187;28;20099;-50
2021/09/30 11:14:23;;;;;;;7.68;3.92;;;;;;;25.18;30.02;100534.66;5055754;28;20028;-50
2021/09/30 11:16:51;;;;;;;8.40;3.70;;;;;;;25.40;29.97;100535.38;5067799;28;20029;-49
2021/09/30 11:19:30;;;;;;;11.07;4.00;;;;;;;25.56;29.22;100540.44;5058366;28;20029;-48
2021/09/30 11:21:57;;;;;;;11.23;3.88;;;;;;;25.59;28.71;100538.22;5057768;28;20053;-48
2021/09/30 11:24:51;;;;;;;8.60;3.85;;;;;;;25.02;29.83;100529.59;5067284;28;20024;-49
2021/09/30 11:27:17;;;;;;;7.05;3.88;;;;;;;25.60;29.03;100529.78;5045114;28;20033;-49
2021/09/30 11:29:43;;;;;;;8.05;3.83;;;;;;;25.97;29.29;100522.97;5060536;28;20534;-48
2021/09/30 11:32:08;;;;;;;10.70;4.68;;;;;;;26.49;28.07;100528.69;5064888;28;20021;-49
2021/09/30 11:34:39;;;;;;;6.38;3.60;;;;;;;26.79;27.53;100523.94;5054264;28;20047;-48
2021/09/30 11:37:25;;;;;;;7.70;3.85;;;;;;;26.62;28.15;100513.56;5065238;28;20079;-51
2021/09/30 11:39:51;;;;;;;7.07;3.97;;;;;;;27.00;27.17;100519.84;5062943;28;20034;-48
2021/09/30 11:42:22;;;;;;;7.88;3.90;;;;;;;26.85;27.85;100517.34;5055316;28;20040;-48
2021/09/30 11:44:57;;;;;;;11.70;3.80;;;;;;;26.46;28.33;100512.88;5066835;28;20024;-48
2021/09/30 11:47:23;;;;;;;9.55;3.80;;;;;;;26.53;29.09;100516.88;5058819;28;20074;-47
2021/09/30 11:49:48;;;;;;;6.80;3.75;;;;;;;26.72;29.17;100513.41;5059176;28;20028;-49
2021/09/30 11:52:15;;;;;;;8.57;4.00;;;;;;;27.44;27.89;100506.94;5065576;28;20024;-47
2021/09/30 11:54:41;;;;;;;11.75;4.20;;;;;;;27.16;27.29;100512.25;5054245;28;20025;-48
2021/09/30 11:57:06;;;;;;;8.18;4.13;;;;;;;26.52;28.18;100511.69;5064829;28;20538;-47
2021/09/30 11:59:32;;;;;;;8.85;4.40;;;;;;;26.00;29.21;100506.00;5040282;28;20035;-46
2021/09/30 12:02:02;;;;;;;8.68;4.28;;;;;;;25.37;30.08;100512.25;5056054;28;20029;-48
2021/09/30 12:04:31;;;;;;;11.23;4.13;;;;;;;24.79;31.15;100501.97;5067118;28;20047;-50
2021/09/30 12:06:57;;;;;;;8.85;4.00;;;;;;;24.89;31.29;100499.19;5054657;28;20027;-47
2021/09/30 12:09:23;;;;;;;11.32;4.10;;;;;;;24.53;30.77;100499.34;5062490;28;20488;-49
2021/09/30 12:12:03;;;;;;;13.05;4.10;;;;;;;25.09;30.60;100497.44;5061903;28;20024;-49
2021/09/30 12:14:34;;;;;;;;;;;;;;;25.47;30.68;100497.75;5053891;28;20477;-47
2021/09/30 12:17:04;;;;;;;10.80;4.15;;;;;;;26.07;29.79;100494.78;5065475;28;19978;-50
2021/09/30 12:19:39;;;;;;;10.65;4.50;;;;;;;26.74;28.87;100483.91;5057632;28;20090;-47
2021/09/30 12:22:15;;;;;;;10.25;4.50;;;;;;;26.50;28.31;100476.53;5056041;28;20029;-48
2021/09/30 12:24:43;;;;;;;9.18;4.00;;;;;;;26.97;27.88;100484.94;5066531;28;20016;-48
2021/09/30 12:27:08;;;;;;;10.80;3.92;;;;;;;27.26;27.77;100483.97;5054852;28;20020;-48
2021/09/30 12:29:44;;;;;;;8.35;4.05;;;;;;;27.17;27.29;100485.72;5060645;28;20024;-50
2021/09/30 12:32:12;;;;;;;5.97;3.75;;;;;;;27.28;27.33;100479.88;5062767;28;20032;-51
2021/09/30 12:34:38;;;;;;;11.18;4.10;;;;;;;27.53;26.98;100487.91;5051378;28;20059;-50
2021/09/30 12:37:04;;;;;;;9.57;4.30;;;;;;;27.81;26.58;100480.59;5064117;28;20060;-50
2021/09/30 12:39:30;;;;;;;14.40;5.78;;;;;;;27.04;26.95;100479.91;5058514;28;20459;-49
2021/09/30 12:42:15;;;;;;;10.00;4.20;;;;;;;26.68;28.18;100472.22;5055229;28;20033;-48
2021/09/30 12:44:44;;;;;;;6.43;3.70;;;;;;;27.20;27.66;100468.75;5066091;28;20039;-48
2021/09/30 12:47:10;;;;;;;7.68;3.83;;;;;;;27.72;26.94;100466.00;5054305;28;20551;-47
2021/09/30 12:49:35;;;;;;;12.50;4.25;;;;;;;27.69;25.95;100472.88;5059605;28;20128;-50
2021/09/30 12:52:19;;;;;;;9.27;4.05;;;;;;;27.17;26.18;100461.16;5055394;28;20025;-49
2021/09/30 12:54:45;;;;;;;9.38;3.45;;;;;;;27.07;25.82;100465.69;5051939;28;20391;-49
2021/09/30 12:57:11;;;;;;;7.95;3.90;;;;;;;27.22;25.74;100461.88;5062011;28;20036;-48
2021/09/30 12:59:37;;;;;;;6.60;3.50;;;;;;;27.61;25.98;100465.41;5059294;28;20381;-49
2021/09/30 13:02:03;;;;;;;5.88;3.80;;;;;;;27.83;25.52;100470.19;5055664;28;20021;-51
2021/09/30 13:04:29;;;;;;;7.20;3.70;;;;;;;27.76;24.92;100459.66;5065699;28;20384;-49
2021/09/30 13:06:59;;;;;;;8.55;3.95;;;;;;;27.56;25.63;100455.34;5051838;28;20064;-49
2021/09/30 13:09:32;;;;;;;10.25;4.30;;;;;;;27.78;25.57;100451.13;5060934;28;20024;-49
2021/09/30 13:12:02;;;;;;;9.45;3.90;;;;;;;27.94;24.95;100449.75;5060512;28;20032;-52
2021/09/30 13:14:33;;;;;;;8.88;3.30;;;;;;;27.77;24.88;100457.72;5050803;28;20053;-48
2021/09/30 13:17:08;;;;;;;11.52;3.50;;;;;;;27.22;24.90;100450.94;5064267;28;20120;-49
2021/09/30 13:19:45;;;;;;;7.93;3.40;;;;;;;27.28;25.29;100452.53;5058517;28;20437;-48
2021/09/30 13:22:34;;;;;;;8.80;3.53;;;;;;;27.40;24.02;100448.53;5054705;28;20029;-49
2021/09/30 13:25:11;;;;;;;10.85;3.50;;;;;;;27.54;24.89;100440.38;5038791;28;20115;-49
2021/09/30 13:27:37;;;;;;;12.02;3.60;;;;;;;27.53;25.46;100436.00;5058169;28;20101;-51
2021/09/30 13:30:04;;;;;;;9.85;4.30;;;;;;;27.29;26.01;100437.75;5062761;28;20016;-50
2021/09/30 13:32:29;;;;;;;6.78;4.10;;;;;;;27.64;25.90;100435.50;5052267;28;20416;-49
2021/09/30 13:34:55;;;;;;;6.82;3.88;;;;;;;27.81;25.64;100434.13;5064276;28;20546;-50
2021/09/30 13:37:21;;;;;;;7.25;3.67;;;;;;;27.49;25.46;100433.88;5056296;28;20031;-50
2021/09/30 13:39:47;;;;;;;10.57;3.75;;;;;;;27.22;25.97;100436.50;5057207;28;20081;-50
2021/09/30 13:42:12;;;;;;;6.05;3.83;;;;;;;27.44;25.55;100427.69;5063733;28;20069;-50
2021/09/30 13:44:38;;;;;;;6.93;3.95;;;;;;;27.17;25.93;100428.38;5053646;28;20024;-50
2021/09/30 13:47:03;;;;;;;9.80;3.92;;;;;;;26.84;26.32;100428.34;5067675;28;20078;-48
2021/09/30 13:49:29;;;;;;;10.65;4.20;;;;;;;27.13;26.06;100425.44;5061892;28;20496;-51
2021/09/30 13:51:54;;;;;;;8.35;3.90;;;;;;;26.43;26.29;100420.72;5060117;28;20134;-48
2021/09/30 13:54:20;;;;;;;7.00;3.80;;;;;;;26.60;26.93;100417.47;5068654;28;20036;-49
2021/09/30 13:56:45;;;;;;;11.20;3.88;;;;;;;26.53;26.79;100424.09;5054551;28;20020;-47
2021/09/30 13:59:12;;;;;;;8.65;4.80;;;;;;;26.69;27.41;100430.19;5063012;28;20093;-49
2021/09/30 14:01:37;;;;;;;11.07;4.25;;;;;;;26.75;26.82;100433.66;5062410;28;20094;-52
2021/09/30 14:04:03;;;;;;;9.73;4.35;;;;;;;26.81;26.55;100429.75;5065866;28;20460;-51
2021/09/30 14:06:29;;;;;;;9.90;4.30;;;;;;;26.75;26.47;100425.47;5055267;28;20032;-51
2021/09/30 14:08:55;;;;;;;7.35;3.88;;;;;;;26.79;26.37;100431.13;5068840;28;20405;-50
2021/09/30 14:11:22;;;;;;;5.28;3.90;;;;;;;26.85;26.27;100422.59;5060375;28;20035;-48
2021/09/30 14:13:48;;;;;;;8.05;3.80;;;;;;;26.97;26.38;100429.50;5060722;28;20507;-50
2021/09/30 14:16:13;;;;;;;7.55;3.85;;;;;;;26.96;25.85;100423.25;5067079;28;20052;-50
2021/09/30 14:18:39;;;;;;;7.32;3.60;;;;;;;26.99;25.19;100417.19;5054067;28;20389;-51
2021/09/30 14:21:04;;;;;;;6.88;3.63;;;;;;;26.86;25.10;100421.47;5062070;28;20036;-51
2021/09/30 14:23:30;;;;;;;9.10;3.90;;;;;;;26.75;25.50;100417.28;5062561;28;20036;-51